sensor_id;sensor_type;location;lat;lon;timestamp;P1;durP1;ratioP1;P2;durP2;ratioP2
41897;SDS011;27576;53.366;-1.498;2022-09-09T00:00:12;31.65;;;24.23;;
41897;SDS011;27576;53.366;-1.498;2022-09-09T00:02:41;38.08;;;25.60;;
41897;SDS011;27576;53.366;-1.498;2022-09-09T00:08:41;31.65;;;22.70;;
41897;SDS011;27576;53.366;-1.498;2022-09-09T00:11:20;33.22;;;22.90;;
41897;SDS011;27576;53.366;-1.498;2022-09-09T00:13:54;34.15;;;23.38;;
41897;SDS011;27576;53.366;-1.498;2022-09-09T00:16:25;32.85;;;24.73;;
41897;SDS011;27576;53.366;-1.498;2022-09-09T00:19:06;38.85;;;26.83;;
41897;SDS011;27576;53.366;-1.498;2022-09-09T00:21:52;36.78;;;25.38;;
41897;SDS011;27576;53.366;-1.498;2022-09-09T00:24:39;34.40;;;24.98;;
41897;SDS011;27576;53.366;-1.498;2022-09-09T00:27:11;42.35;;;27.35;;
41897;SDS011;27576;53.366;-1.498;2022-09-09T00:29:44;41.28;;;28.30;;
41897;SDS011;27576;53.366;-1.498;2022-09-09T00:32:16;40.90;;;27.50;;
41897;SDS011;27576;53.366;-1.498;2022-09-09T00:35:01;43.33;;;29.30;;
41897;SDS011;27576;53.366;-1.498;2022-09-09T00:37:37;36.70;;;25.77;;
41897;SDS011;27576;53.366;-1.498;2022-09-09T00:40:11;36.13;;;25.35;;
41897;SDS011;27576;53.366;-1.498;2022-09-09T00:42:47;36.53;;;25.20;;
41897;SDS011;27576;53.366;-1.498;2022-09-09T00:48:21;42.83;;;28.10;;
41897;SDS011;27576;53.366;-1.498;2022-09-09T00:50:59;43.47;;;29.80;;
41897;SDS011;27576;53.366;-1.498;2022-09-09T00:53:51;35.53;;;25.77;;
41897;SDS011;27576;53.366;-1.498;2022-09-09T00:56:58;43.10;;;27.98;;
41897;SDS011;27576;53.366;-1.498;2022-09-09T01:02:11;40.72;;;28.77;;
41897;SDS011;27576;53.366;-1.498;2022-09-09T01:04:47;38.78;;;27.80;;
41897;SDS011;27576;53.366;-1.498;2022-09-09T01:07:15;37.92;;;26.27;;
41897;SDS011;27576;53.366;-1.498;2022-09-09T01:09:51;36.50;;;26.55;;
41897;SDS011;27576;53.366;-1.498;2022-09-09T01:14:54;42.38;;;27.95;;
41897;SDS011;27576;53.366;-1.498;2022-09-09T01:17:32;46.88;;;28.70;;
41897;SDS011;27576;53.366;-1.498;2022-09-09T01:20:13;41.55;;;28.30;;
41897;SDS011;27576;53.366;-1.498;2022-09-09T01:22:52;40.58;;;28.38;;
41897;SDS011;27576;53.366;-1.498;2022-09-09T01:28:34;34.55;;;25.33;;
41897;SDS011;27576;53.366;-1.498;2022-09-09T01:31:02;42.63;;;29.20;;
41897;SDS011;27576;53.366;-1.498;2022-09-09T01:33:31;40.60;;;27.77;;
41897;SDS011;27576;53.366;-1.498;2022-09-09T01:38:51;39.50;;;27.35;;
41897;SDS011;27576;53.366;-1.498;2022-09-09T01:41:17;55.55;;;33.08;;
41897;SDS011;27576;53.366;-1.498;2022-09-09T01:43:42;40.50;;;27.55;;
41897;SDS011;27576;53.366;-1.498;2022-09-09T01:46:08;42.30;;;26.98;;
41897;SDS011;27576;53.366;-1.498;2022-09-09T01:48:36;41.22;;;27.60;;
41897;SDS011;27576;53.366;-1.498;2022-09-09T01:51:01;50.78;;;31.00;;
41897;SDS011;27576;53.366;-1.498;2022-09-09T01:53:27;47.20;;;28.77;;
41897;SDS011;27576;53.366;-1.498;2022-09-09T01:58:37;48.03;;;28.80;;
41897;SDS011;27576;53.366;-1.498;2022-09-09T02:04:30;44.97;;;27.40;;
41897;SDS011;27576;53.366;-1.498;2022-09-09T02:06:59;46.17;;;28.55;;
41897;SDS011;27576;53.366;-1.498;2022-09-09T02:09:25;50.60;;;27.73;;
41897;SDS011;27576;53.366;-1.498;2022-09-09T02:12:00;44.47;;;26.52;;
41897;SDS011;27576;53.366;-1.498;2022-09-09T02:14:33;38.42;;;24.38;;
41897;SDS011;27576;53.366;-1.498;2022-09-09T02:17:07;41.53;;;26.50;;
41897;SDS011;27576;53.366;-1.498;2022-09-09T02:19:37;42.92;;;26.25;;
41897;SDS011;27576;53.366;-1.498;2022-09-09T02:22:10;43.88;;;26.30;;
41897;SDS011;27576;53.366;-1.498;2022-09-09T02:24:37;40.80;;;24.98;;
41897;SDS011;27576;53.366;-1.498;2022-09-09T02:27:05;40.35;;;24.42;;
41897;SDS011;27576;53.366;-1.498;2022-09-09T02:29:34;39.47;;;24.80;;
41897;SDS011;27576;53.366;-1.498;2022-09-09T02:32:05;39.20;;;25.63;;
41897;SDS011;27576;53.366;-1.498;2022-09-09T02:34:34;39.95;;;25.48;;
41897;SDS011;27576;53.366;-1.498;2022-09-09T02:37:03;41.47;;;26.67;;
41897;SDS011;27576;53.366;-1.498;2022-09-09T02:39:31;41.60;;;26.35;;
41897;SDS011;27576;53.366;-1.498;2022-09-09T02:41:57;38.17;;;25.13;;
41897;SDS011;27576;53.366;-1.498;2022-09-09T02:44:22;44.15;;;27.05;;
41897;SDS011;27576;53.366;-1.498;2022-09-09T02:52:32;37.95;;;25.02;;
41897;SDS011;27576;53.366;-1.498;2022-09-09T02:55:23;42.00;;;26.52;;
41897;SDS011;27576;53.366;-1.498;2022-09-09T02:58:01;39.30;;;25.35;;
41897;SDS011;27576;53.366;-1.498;2022-09-09T03:00:32;35.15;;;21.17;;
41897;SDS011;27576;53.366;-1.498;2022-09-09T03:03:00;31.80;;;22.20;;
41897;SDS011;27576;53.366;-1.498;2022-09-09T03:05:27;35.30;;;22.90;;
41897;SDS011;27576;53.366;-1.498;2022-09-09T03:07:53;34.90;;;22.38;;
41897;SDS011;27576;53.366;-1.498;2022-09-09T03:10:18;33.08;;;21.00;;
41897;SDS011;27576;53.366;-1.498;2022-09-09T03:12:44;33.03;;;22.20;;
41897;SDS011;27576;53.366;-1.498;2022-09-09T03:15:09;36.08;;;23.38;;
41897;SDS011;27576;53.366;-1.498;2022-09-09T03:17:35;31.85;;;21.73;;
41897;SDS011;27576;53.366;-1.498;2022-09-09T03:20:02;35.95;;;23.98;;
41897;SDS011;27576;53.366;-1.498;2022-09-09T03:22:30;35.58;;;24.05;;
41897;SDS011;27576;53.366;-1.498;2022-09-09T03:24:56;36.42;;;24.42;;
41897;SDS011;27576;53.366;-1.498;2022-09-09T03:27:21;40.40;;;27.27;;
41897;SDS011;27576;53.366;-1.498;2022-09-09T03:29:47;33.63;;;24.13;;
41897;SDS011;27576;53.366;-1.498;2022-09-09T03:32:16;36.72;;;23.73;;
41897;SDS011;27576;53.366;-1.498;2022-09-09T03:34:42;36.13;;;24.85;;
41897;SDS011;27576;53.366;-1.498;2022-09-09T03:37:08;37.53;;;24.98;;
41897;SDS011;27576;53.366;-1.498;2022-09-09T03:39:33;42.78;;;25.90;;
41897;SDS011;27576;53.366;-1.498;2022-09-09T03:41:58;37.42;;;25.98;;
41897;SDS011;27576;53.366;-1.498;2022-09-09T03:44:24;35.75;;;24.63;;
41897;SDS011;27576;53.366;-1.498;2022-09-09T03:46:49;35.10;;;23.42;;
41897;SDS011;27576;53.366;-1.498;2022-09-09T03:49:15;34.10;;;24.58;;
41897;SDS011;27576;53.366;-1.498;2022-09-09T03:51:41;33.30;;;23.15;;
41897;SDS011;27576;53.366;-1.498;2022-09-09T03:54:07;35.80;;;23.00;;
41897;SDS011;27576;53.366;-1.498;2022-09-09T03:56:35;33.20;;;23.90;;
41897;SDS011;27576;53.366;-1.498;2022-09-09T03:59:01;32.10;;;23.85;;
41897;SDS011;27576;53.366;-1.498;2022-09-09T04:01:27;28.33;;;21.35;;
41897;SDS011;27576;53.366;-1.498;2022-09-09T04:03:53;30.35;;;19.45;;
41897;SDS011;27576;53.366;-1.498;2022-09-09T04:06:20;26.83;;;20.92;;
41897;SDS011;27576;53.366;-1.498;2022-09-09T04:08:46;28.13;;;20.92;;
41897;SDS011;27576;53.366;-1.498;2022-09-09T04:11:13;25.45;;;19.45;;
41897;SDS011;27576;53.366;-1.498;2022-09-09T04:13:40;23.85;;;17.70;;
41897;SDS011;27576;53.366;-1.498;2022-09-09T04:16:06;30.95;;;20.58;;
41897;SDS011;27576;53.366;-1.498;2022-09-09T04:18:33;21.38;;;17.30;;
41897;SDS011;27576;53.366;-1.498;2022-09-09T04:20:59;28.27;;;19.55;;
41897;SDS011;27576;53.366;-1.498;2022-09-09T04:23:25;18.75;;;16.27;;
41897;SDS011;27576;53.366;-1.498;2022-09-09T04:25:54;21.58;;;16.65;;
41897;SDS011;27576;53.366;-1.498;2022-09-09T04:28:21;20.15;;;15.10;;
41897;SDS011;27576;53.366;-1.498;2022-09-09T04:30:48;24.55;;;15.25;;
41897;SDS011;27576;53.366;-1.498;2022-09-09T04:33:14;21.25;;;15.50;;
41897;SDS011;27576;53.366;-1.498;2022-09-09T04:35:43;22.60;;;15.82;;
41897;SDS011;27576;53.366;-1.498;2022-09-09T04:38:10;16.25;;;13.13;;
41897;SDS011;27576;53.366;-1.498;2022-09-09T04:40:36;20.50;;;14.27;;
41897;SDS011;27576;53.366;-1.498;2022-09-09T04:43:02;18.42;;;14.70;;
41897;SDS011;27576;53.366;-1.498;2022-09-09T04:45:30;18.35;;;13.13;;
41897;SDS011;27576;53.366;-1.498;2022-09-09T04:47:56;20.30;;;13.90;;
41897;SDS011;27576;53.366;-1.498;2022-09-09T04:50:22;24.35;;;15.85;;
41897;SDS011;27576;53.366;-1.498;2022-09-09T04:52:47;20.60;;;14.80;;
41897;SDS011;27576;53.366;-1.498;2022-09-09T04:55:13;19.50;;;15.07;;
41897;SDS011;27576;53.366;-1.498;2022-09-09T04:57:39;16.75;;;13.63;;
41897;SDS011;27576;53.366;-1.498;2022-09-09T05:00:05;22.27;;;15.10;;
41897;SDS011;27576;53.366;-1.498;2022-09-09T05:02:31;25.25;;;17.20;;
41897;SDS011;27576;53.366;-1.498;2022-09-09T05:04:57;18.90;;;15.32;;
41897;SDS011;27576;53.366;-1.498;2022-09-09T05:07:23;19.50;;;14.27;;
41897;SDS011;27576;53.366;-1.498;2022-09-09T05:09:49;21.08;;;16.15;;
41897;SDS011;27576;53.366;-1.498;2022-09-09T05:12:15;21.52;;;15.93;;
41897;SDS011;27576;53.366;-1.498;2022-09-09T05:14:42;22.23;;;16.48;;
41897;SDS011;27576;53.366;-1.498;2022-09-09T05:17:07;24.75;;;16.33;;
41897;SDS011;27576;53.366;-1.498;2022-09-09T05:19:33;27.15;;;18.25;;
41897;SDS011;27576;53.366;-1.498;2022-09-09T05:21:58;29.20;;;18.27;;
41897;SDS011;27576;53.366;-1.498;2022-09-09T05:24:24;23.45;;;17.25;;
41897;SDS011;27576;53.366;-1.498;2022-09-09T05:26:49;21.30;;;16.65;;
41897;SDS011;27576;53.366;-1.498;2022-09-09T05:29:15;23.05;;;17.77;;
41897;SDS011;27576;53.366;-1.498;2022-09-09T05:31:43;21.05;;;15.65;;
41897;SDS011;27576;53.366;-1.498;2022-09-09T05:34:08;20.63;;;15.35;;
41897;SDS011;27576;53.366;-1.498;2022-09-09T05:36:34;17.90;;;14.65;;
41897;SDS011;27576;53.366;-1.498;2022-09-09T05:38:59;24.48;;;17.92;;
41897;SDS011;27576;53.366;-1.498;2022-09-09T05:41:26;22.52;;;16.33;;
41897;SDS011;27576;53.366;-1.498;2022-09-09T05:43:52;23.05;;;15.95;;
41897;SDS011;27576;53.366;-1.498;2022-09-09T05:46:19;20.45;;;15.52;;
41897;SDS011;27576;53.366;-1.498;2022-09-09T05:48:46;23.00;;;16.15;;
41897;SDS011;27576;53.366;-1.498;2022-09-09T05:51:15;29.92;;;18.13;;
41897;SDS011;27576;53.366;-1.498;2022-09-09T05:53:43;28.30;;;18.75;;
41897;SDS011;27576;53.366;-1.498;2022-09-09T05:58:36;25.52;;;18.15;;
41897;SDS011;27576;53.366;-1.498;2022-09-09T06:01:03;27.17;;;18.77;;
41897;SDS011;27576;53.366;-1.498;2022-09-09T06:03:30;30.95;;;20.55;;
41897;SDS011;27576;53.366;-1.498;2022-09-09T06:05:57;31.67;;;20.27;;
41897;SDS011;27576;53.366;-1.498;2022-09-09T06:08:27;31.08;;;19.73;;
41897;SDS011;27576;53.366;-1.498;2022-09-09T06:10:53;27.00;;;19.80;;
41897;SDS011;27576;53.366;-1.498;2022-09-09T06:13:18;36.28;;;22.58;;
41897;SDS011;27576;53.366;-1.498;2022-09-09T06:15:50;33.40;;;21.95;;
41897;SDS011;27576;53.366;-1.498;2022-09-09T06:18:17;31.33;;;20.73;;
41897;SDS011;27576;53.366;-1.498;2022-09-09T06:20:52;33.38;;;21.65;;
41897;SDS011;27576;53.366;-1.498;2022-09-09T06:23:25;28.35;;;18.88;;
41897;SDS011;27576;53.366;-1.498;2022-09-09T06:25:52;29.75;;;21.27;;
41897;SDS011;27576;53.366;-1.498;2022-09-09T06:28:33;27.13;;;18.30;;
41897;SDS011;27576;53.366;-1.498;2022-09-09T06:30:59;26.63;;;19.75;;
41897;SDS011;27576;53.366;-1.498;2022-09-09T06:33:39;35.22;;;20.83;;
41897;SDS011;27576;53.366;-1.498;2022-09-09T06:36:16;26.13;;;17.88;;
41897;SDS011;27576;53.366;-1.498;2022-09-09T06:38:43;26.25;;;18.73;;
41897;SDS011;27576;53.366;-1.498;2022-09-09T06:41:09;33.22;;;19.92;;
41897;SDS011;27576;53.366;-1.498;2022-09-09T06:43:36;24.38;;;20.15;;
41897;SDS011;27576;53.366;-1.498;2022-09-09T06:46:05;29.15;;;21.15;;
41897;SDS011;27576;53.366;-1.498;2022-09-09T06:48:35;27.45;;;20.45;;
41897;SDS011;27576;53.366;-1.498;2022-09-09T06:53:31;27.80;;;20.90;;
41897;SDS011;27576;53.366;-1.498;2022-09-09T06:58:39;31.88;;;20.73;;
41897;SDS011;27576;53.366;-1.498;2022-09-09T07:01:12;29.00;;;20.38;;
41897;SDS011;27576;53.366;-1.498;2022-09-09T07:03:39;27.67;;;20.95;;
41897;SDS011;27576;53.366;-1.498;2022-09-09T07:06:07;31.10;;;21.70;;
41897;SDS011;27576;53.366;-1.498;2022-09-09T07:08:39;29.48;;;21.20;;
41897;SDS011;27576;53.366;-1.498;2022-09-09T07:11:06;30.33;;;21.17;;
41897;SDS011;27576;53.366;-1.498;2022-09-09T07:13:33;30.65;;;19.33;;
41897;SDS011;27576;53.366;-1.498;2022-09-09T07:18:31;27.80;;;19.77;;
41897;SDS011;27576;53.366;-1.498;2022-09-09T07:20:58;26.77;;;20.17;;
41897;SDS011;27576;53.366;-1.498;2022-09-09T07:23:23;32.15;;;21.60;;
41897;SDS011;27576;53.366;-1.498;2022-09-09T07:25:49;30.65;;;19.15;;
41897;SDS011;27576;53.366;-1.498;2022-09-09T07:28:16;21.92;;;15.90;;
41897;SDS011;27576;53.366;-1.498;2022-09-09T07:30:42;23.63;;;17.58;;
41897;SDS011;27576;53.366;-1.498;2022-09-09T07:33:08;33.13;;;20.40;;
41897;SDS011;27576;53.366;-1.498;2022-09-09T07:35:34;29.95;;;19.63;;
41897;SDS011;27576;53.366;-1.498;2022-09-09T07:38:03;25.63;;;16.70;;
41897;SDS011;27576;53.366;-1.498;2022-09-09T07:40:32;31.60;;;18.65;;
41897;SDS011;27576;53.366;-1.498;2022-09-09T07:42:58;26.92;;;20.13;;
41897;SDS011;27576;53.366;-1.498;2022-09-09T07:45:24;32.00;;;20.25;;
41897;SDS011;27576;53.366;-1.498;2022-09-09T07:47:49;28.58;;;19.05;;
41897;SDS011;27576;53.366;-1.498;2022-09-09T07:50:15;28.88;;;18.65;;
41897;SDS011;27576;53.366;-1.498;2022-09-09T07:52:40;26.23;;;17.10;;
41897;SDS011;27576;53.366;-1.498;2022-09-09T07:55:06;27.75;;;18.98;;
41897;SDS011;27576;53.366;-1.498;2022-09-09T07:57:31;25.15;;;18.42;;
41897;SDS011;27576;53.366;-1.498;2022-09-09T07:59:57;28.95;;;19.23;;
41897;SDS011;27576;53.366;-1.498;2022-09-09T08:02:23;26.02;;;16.73;;
41897;SDS011;27576;53.366;-1.498;2022-09-09T08:04:51;25.55;;;16.98;;
41897;SDS011;27576;53.366;-1.498;2022-09-09T08:07:17;25.58;;;17.15;;
41897;SDS011;27576;53.366;-1.498;2022-09-09T08:09:42;33.67;;;17.98;;
41897;SDS011;27576;53.366;-1.498;2022-09-09T08:12:08;30.20;;;16.92;;
41897;SDS011;27576;53.366;-1.498;2022-09-09T08:14:35;25.40;;;17.15;;
41897;SDS011;27576;53.366;-1.498;2022-09-09T08:17:01;18.70;;;15.43;;
41897;SDS011;27576;53.366;-1.498;2022-09-09T08:19:27;20.80;;;15.35;;
41897;SDS011;27576;53.366;-1.498;2022-09-09T08:21:55;21.33;;;15.45;;
41897;SDS011;27576;53.366;-1.498;2022-09-09T08:24:20;17.00;;;12.90;;
41897;SDS011;27576;53.366;-1.498;2022-09-09T08:26:47;19.08;;;13.68;;
41897;SDS011;27576;53.366;-1.498;2022-09-09T08:29:16;17.25;;;12.05;;
41897;SDS011;27576;53.366;-1.498;2022-09-09T08:31:43;16.02;;;10.90;;
41897;SDS011;27576;53.366;-1.498;2022-09-09T08:34:10;15.43;;;10.63;;
41897;SDS011;27576;53.366;-1.498;2022-09-09T08:36:37;14.80;;;10.57;;
41897;SDS011;27576;53.366;-1.498;2022-09-09T08:39:08;15.20;;;10.07;;
41897;SDS011;27576;53.366;-1.498;2022-09-09T08:44:31;16.88;;;9.77;;
41897;SDS011;27576;53.366;-1.498;2022-09-09T08:49:45;15.25;;;9.88;;
41897;SDS011;27576;53.366;-1.498;2022-09-09T08:52:37;10.20;;;7.97;;
41897;SDS011;27576;53.366;-1.498;2022-09-09T08:57:48;12.57;;;9.95;;
41897;SDS011;27576;53.366;-1.498;2022-09-09T09:00:18;16.15;;;9.80;;
41897;SDS011;27576;53.366;-1.498;2022-09-09T09:02:57;11.30;;;8.60;;
41897;SDS011;27576;53.366;-1.498;2022-09-09T09:05:51;13.43;;;9.05;;
41897;SDS011;27576;53.366;-1.498;2022-09-09T09:08:44;13.13;;;8.13;;
41897;SDS011;27576;53.366;-1.498;2022-09-09T09:11:18;11.77;;;8.50;;
41897;SDS011;27576;53.366;-1.498;2022-09-09T09:13:45;10.55;;;8.85;;
41897;SDS011;27576;53.366;-1.498;2022-09-09T09:16:27;11.77;;;7.47;;
41897;SDS011;27576;53.366;-1.498;2022-09-09T09:18:58;11.45;;;7.15;;
41897;SDS011;27576;53.366;-1.498;2022-09-09T09:26:41;8.20;;;5.82;;
41897;SDS011;27576;53.366;-1.498;2022-09-09T09:29:17;12.00;;;6.28;;
41897;SDS011;27576;53.366;-1.498;2022-09-09T09:31:48;8.10;;;5.75;;
41897;SDS011;27576;53.366;-1.498;2022-09-09T09:34:17;7.65;;;4.72;;
41897;SDS011;27576;53.366;-1.498;2022-09-09T09:36:43;8.77;;;5.28;;
41897;SDS011;27576;53.366;-1.498;2022-09-09T09:39:22;10.82;;;5.40;;
41897;SDS011;27576;53.366;-1.498;2022-09-09T09:41:52;9.43;;;4.50;;
41897;SDS011;27576;53.366;-1.498;2022-09-09T09:44:26;7.97;;;3.58;;
41897;SDS011;27576;53.366;-1.498;2022-09-09T09:46:53;5.97;;;3.05;;
41897;SDS011;27576;53.366;-1.498;2022-09-09T09:49:34;5.03;;;3.20;;
41897;SDS011;27576;53.366;-1.498;2022-09-09T09:52:00;9.32;;;3.10;;
41897;SDS011;27576;53.366;-1.498;2022-09-09T09:54:29;4.35;;;2.72;;
41897;SDS011;27576;53.366;-1.498;2022-09-09T09:57:12;5.22;;;2.72;;
41897;SDS011;27576;53.366;-1.498;2022-09-09T09:59:39;4.53;;;2.80;;
41897;SDS011;27576;53.366;-1.498;2022-09-09T10:02:16;4.50;;;2.45;;
41897;SDS011;27576;53.366;-1.498;2022-09-09T10:04:43;7.72;;;2.95;;
41897;SDS011;27576;53.366;-1.498;2022-09-09T10:07:15;8.27;;;3.17;;
41897;SDS011;27576;53.366;-1.498;2022-09-09T10:09:47;4.57;;;2.95;;
41897;SDS011;27576;53.366;-1.498;2022-09-09T10:26:27;5.78;;;2.60;;
41897;SDS011;27576;53.366;-1.498;2022-09-09T10:32:10;3.78;;;2.88;;
41897;SDS011;27576;53.366;-1.498;2022-09-09T10:34:56;6.72;;;3.17;;
41897;SDS011;27576;53.366;-1.498;2022-09-09T10:40:32;6.30;;;3.08;;
41897;SDS011;27576;53.366;-1.498;2022-09-09T10:48:56;6.07;;;2.30;;
41897;SDS011;27576;53.366;-1.498;2022-09-09T10:51:49;3.15;;;1.95;;
41897;SDS011;27576;53.366;-1.498;2022-09-09T10:56:48;4.65;;;1.98;;
41897;SDS011;27576;53.366;-1.498;2022-09-09T10:59:20;4.88;;;1.83;;
41897;SDS011;27576;53.366;-1.498;2022-09-09T11:01:59;3.13;;;1.98;;
41897;SDS011;27576;53.366;-1.498;2022-09-09T11:04:41;3.50;;;1.70;;
41897;SDS011;27576;53.366;-1.498;2022-09-09T11:07:10;5.47;;;2.17;;
41897;SDS011;27576;53.366;-1.498;2022-09-09T11:09:46;5.47;;;2.33;;
41897;SDS011;27576;53.366;-1.498;2022-09-09T11:12:19;5.43;;;2.35;;
41897;SDS011;27576;53.366;-1.498;2022-09-09T11:14:46;6.30;;;2.35;;
41897;SDS011;27576;53.366;-1.498;2022-09-09T11:17:21;5.20;;;2.58;;
41897;SDS011;27576;53.366;-1.498;2022-09-09T11:19:49;3.08;;;1.60;;
41897;SDS011;27576;53.366;-1.498;2022-09-09T11:31:00;4.47;;;1.40;;
41897;SDS011;27576;53.366;-1.498;2022-09-09T11:37:40;5.53;;;1.83;;
41897;SDS011;27576;53.366;-1.498;2022-09-09T11:40:19;3.67;;;1.40;;
41897;SDS011;27576;53.366;-1.498;2022-09-09T11:42:47;4.97;;;1.77;;
41897;SDS011;27576;53.366;-1.498;2022-09-09T11:45:22;5.30;;;1.38;;
41897;SDS011;27576;53.366;-1.498;2022-09-09T11:48:01;2.83;;;0.98;;
41897;SDS011;27576;53.366;-1.498;2022-09-09T11:50:37;3.72;;;1.33;;
41897;SDS011;27576;53.366;-1.498;2022-09-09T11:53:05;3.78;;;0.93;;
41897;SDS011;27576;53.366;-1.498;2022-09-09T11:55:45;1.85;;;0.77;;
41897;SDS011;27576;53.366;-1.498;2022-09-09T12:00:40;2.38;;;1.10;;
41897;SDS011;27576;53.366;-1.498;2022-09-09T12:08:52;3.72;;;1.30;;
41897;SDS011;27576;53.366;-1.498;2022-09-09T12:11:28;3.60;;;1.45;;
41897;SDS011;27576;53.366;-1.498;2022-09-09T12:13:56;3.83;;;1.50;;
41897;SDS011;27576;53.366;-1.498;2022-09-09T12:16:30;3.03;;;1.40;;
41897;SDS011;27576;53.366;-1.498;2022-09-09T12:22:06;4.65;;;1.60;;
41897;SDS011;27576;53.366;-1.498;2022-09-09T12:24:54;5.88;;;1.40;;
41897;SDS011;27576;53.366;-1.498;2022-09-09T12:27:35;5.25;;;1.85;;
41897;SDS011;27576;53.366;-1.498;2022-09-09T12:32:42;4.05;;;1.70;;
41897;SDS011;27576;53.366;-1.498;2022-09-09T12:37:52;9.30;;;2.30;;
41897;SDS011;27576;53.366;-1.498;2022-09-09T12:42:51;7.65;;;2.10;;
41897;SDS011;27576;53.366;-1.498;2022-09-09T12:45:18;4.13;;;1.05;;
41897;SDS011;27576;53.366;-1.498;2022-09-09T12:47:57;4.68;;;1.42;;
41897;SDS011;27576;53.366;-1.498;2022-09-09T12:50:35;2.05;;;0.82;;
41897;SDS011;27576;53.366;-1.498;2022-09-09T12:53:07;5.38;;;1.10;;
41897;SDS011;27576;53.366;-1.498;2022-09-09T12:55:48;4.28;;;1.40;;
41897;SDS011;27576;53.366;-1.498;2022-09-09T12:58:17;3.00;;;1.40;;
41897;SDS011;27576;53.366;-1.498;2022-09-09T13:00:51;2.25;;;1.20;;
41897;SDS011;27576;53.366;-1.498;2022-09-09T13:03:21;2.55;;;1.50;;
41897;SDS011;27576;53.366;-1.498;2022-09-09T13:05:47;5.35;;;2.03;;
41897;SDS011;27576;53.366;-1.498;2022-09-09T13:08:13;3.15;;;1.80;;
41897;SDS011;27576;53.366;-1.498;2022-09-09T13:11:01;3.58;;;1.65;;
41897;SDS011;27576;53.366;-1.498;2022-09-09T13:13:38;2.33;;;1.10;;
41897;SDS011;27576;53.366;-1.498;2022-09-09T13:16:17;3.45;;;0.98;;
41897;SDS011;27576;53.366;-1.498;2022-09-09T13:18:49;2.28;;;0.90;;
41897;SDS011;27576;53.366;-1.498;2022-09-09T13:21:14;1.77;;;0.70;;
41897;SDS011;27576;53.366;-1.498;2022-09-09T13:23:40;2.33;;;0.82;;
41897;SDS011;27576;53.366;-1.498;2022-09-09T13:26:27;0.98;;;0.60;;
41897;SDS011;27576;53.366;-1.498;2022-09-09T13:28:53;3.00;;;1.25;;
41897;SDS011;27576;53.366;-1.498;2022-09-09T13:31:23;1.02;;;0.65;;
41897;SDS011;27576;53.366;-1.498;2022-09-09T13:33:54;1.08;;;0.55;;
41897;SDS011;27576;53.366;-1.498;2022-09-09T13:36:29;1.23;;;1.00;;
41897;SDS011;27576;53.366;-1.498;2022-09-09T13:38:57;2.08;;;1.00;;
41897;SDS011;27576;53.366;-1.498;2022-09-09T13:41:29;2.58;;;1.13;;
41897;SDS011;27576;53.366;-1.498;2022-09-09T13:43:58;1.60;;;0.95;;
41897;SDS011;27576;53.366;-1.498;2022-09-09T13:46:26;3.75;;;1.00;;
41897;SDS011;27576;53.366;-1.498;2022-09-09T13:49:03;1.98;;;0.85;;
41897;SDS011;27576;53.366;-1.498;2022-09-09T13:51:46;1.33;;;0.90;;
41897;SDS011;27576;53.366;-1.498;2022-09-09T13:54:16;2.25;;;1.17;;
41897;SDS011;27576;53.366;-1.498;2022-09-09T13:56:43;2.17;;;1.30;;
41897;SDS011;27576;53.366;-1.498;2022-09-09T13:59:16;2.50;;;1.17;;
41897;SDS011;27576;53.366;-1.498;2022-09-09T14:01:46;3.35;;;1.17;;
41897;SDS011;27576;53.366;-1.498;2022-09-09T14:04:12;1.88;;;0.88;;
41897;SDS011;27576;53.366;-1.498;2022-09-09T14:06:38;2.40;;;0.80;;
41897;SDS011;27576;53.366;-1.498;2022-09-09T14:09:05;2.90;;;1.20;;
41897;SDS011;27576;53.366;-1.498;2022-09-09T14:11:31;2.00;;;0.90;;
41897;SDS011;27576;53.366;-1.498;2022-09-09T14:13:57;5.43;;;1.30;;
41897;SDS011;27576;53.366;-1.498;2022-09-09T14:16:22;5.43;;;1.27;;
41897;SDS011;27576;53.366;-1.498;2022-09-09T14:18:47;1.55;;;0.93;;
41897;SDS011;27576;53.366;-1.498;2022-09-09T14:21:13;1.50;;;1.08;;
41897;SDS011;27576;53.366;-1.498;2022-09-09T14:23:40;1.38;;;1.05;;
41897;SDS011;27576;53.366;-1.498;2022-09-09T14:26:06;2.08;;;1.00;;
41897;SDS011;27576;53.366;-1.498;2022-09-09T14:28:32;2.58;;;0.90;;
41897;SDS011;27576;53.366;-1.498;2022-09-09T14:30:59;2.40;;;1.20;;
41897;SDS011;27576;53.366;-1.498;2022-09-09T14:33:26;2.47;;;0.70;;
41897;SDS011;27576;53.366;-1.498;2022-09-09T14:36:00;3.17;;;1.00;;
41897;SDS011;27576;53.366;-1.498;2022-09-09T14:38:28;2.47;;;0.88;;
41897;SDS011;27576;53.366;-1.498;2022-09-09T14:40:55;1.30;;;0.85;;
41897;SDS011;27576;53.366;-1.498;2022-09-09T14:43:21;2.35;;;0.90;;
41897;SDS011;27576;53.366;-1.498;2022-09-09T14:45:47;2.20;;;0.80;;
41897;SDS011;27576;53.366;-1.498;2022-09-09T14:48:16;2.53;;;0.85;;
41897;SDS011;27576;53.366;-1.498;2022-09-09T14:50:42;2.90;;;0.85;;
41897;SDS011;27576;53.366;-1.498;2022-09-09T14:53:07;1.05;;;0.70;;
41897;SDS011;27576;53.366;-1.498;2022-09-09T14:55:34;1.50;;;0.98;;
41897;SDS011;27576;53.366;-1.498;2022-09-09T14:57:59;1.75;;;0.80;;
41897;SDS011;27576;53.366;-1.498;2022-09-09T15:00:25;1.17;;;0.70;;
41897;SDS011;27576;53.366;-1.498;2022-09-09T15:02:54;3.13;;;1.00;;
41897;SDS011;27576;53.366;-1.498;2022-09-09T15:05:20;1.05;;;0.70;;
41897;SDS011;27576;53.366;-1.498;2022-09-09T15:07:45;1.45;;;0.70;;
41897;SDS011;27576;53.366;-1.498;2022-09-09T15:10:12;0.95;;;0.65;;
41897;SDS011;27576;53.366;-1.498;2022-09-09T15:12:37;2.25;;;0.75;;
41897;SDS011;27576;53.366;-1.498;2022-09-09T15:15:04;2.05;;;0.82;;
41897;SDS011;27576;53.366;-1.498;2022-09-09T15:17:30;3.40;;;0.50;;
41897;SDS011;27576;53.366;-1.498;2022-09-09T15:19:55;1.33;;;0.63;;
41897;SDS011;27576;53.366;-1.498;2022-09-09T15:22:21;6.50;;;2.05;;
41897;SDS011;27576;53.366;-1.498;2022-09-09T15:24:47;4.32;;;1.60;;
41897;SDS011;27576;53.366;-1.498;2022-09-09T15:27:12;4.72;;;2.35;;
41897;SDS011;27576;53.366;-1.498;2022-09-09T15:29:39;1.63;;;0.85;;
41897;SDS011;27576;53.366;-1.498;2022-09-09T15:32:05;1.60;;;0.63;;
41897;SDS011;27576;53.366;-1.498;2022-09-09T15:34:31;1.60;;;0.70;;
41897;SDS011;27576;53.366;-1.498;2022-09-09T15:36:56;2.83;;;0.80;;
41897;SDS011;27576;53.366;-1.498;2022-09-09T15:39:22;0.68;;;0.50;;
41897;SDS011;27576;53.366;-1.498;2022-09-09T15:41:47;1.52;;;0.60;;
41897;SDS011;27576;53.366;-1.498;2022-09-09T15:44:14;0.88;;;0.50;;
41897;SDS011;27576;53.366;-1.498;2022-09-09T15:46:44;2.15;;;0.75;;
41897;SDS011;27576;53.366;-1.498;2022-09-09T15:49:18;2.25;;;0.80;;
41897;SDS011;27576;53.366;-1.498;2022-09-09T15:51:50;0.90;;;0.77;;
41897;SDS011;27576;53.366;-1.498;2022-09-09T15:54:30;2.78;;;0.75;;
41897;SDS011;27576;53.366;-1.498;2022-09-09T15:56:58;2.20;;;0.60;;
41897;SDS011;27576;53.366;-1.498;2022-09-09T15:59:26;1.25;;;0.85;;
41897;SDS011;27576;53.366;-1.498;2022-09-09T16:01:53;2.17;;;0.88;;
41897;SDS011;27576;53.366;-1.498;2022-09-09T16:04:20;1.33;;;0.73;;
41897;SDS011;27576;53.366;-1.498;2022-09-09T16:06:59;0.70;;;0.60;;
41897;SDS011;27576;53.366;-1.498;2022-09-09T16:09:27;2.33;;;0.95;;
41897;SDS011;27576;53.366;-1.498;2022-09-09T16:11:55;0.55;;;0.43;;
41897;SDS011;27576;53.366;-1.498;2022-09-09T16:14:31;3.33;;;0.93;;
41897;SDS011;27576;53.366;-1.498;2022-09-09T16:16:59;2.60;;;1.00;;
41897;SDS011;27576;53.366;-1.498;2022-09-09T16:19:24;3.15;;;1.05;;
41897;SDS011;27576;53.366;-1.498;2022-09-09T16:21:50;1.38;;;0.90;;
41897;SDS011;27576;53.366;-1.498;2022-09-09T16:24:17;2.38;;;1.00;;
41897;SDS011;27576;53.366;-1.498;2022-09-09T16:26:45;2.15;;;1.38;;